Time;durP1;ratioP1;P1;durP2;ratioP2;P2;SDS_P1;SDS_P2;PMS_P1;PMS_P2;Temp;Humidity;BMP_temperature;BMP_pressure;BME280_temperature;BME280_humidity;BME280_pressure;Samples;Min_cycle;Max_cycle;Signal;HPM_P1;HPM_P2
2022/08/20 00:02:08;;;;;;;0.70;0.70;;;;;;;;;;5073471;28;20461;-80
2022/08/20 00:04:35;;;;;;;0.80;0.70;;;;;;;;;;5056775;28;20427;-79
2022/08/20 00:07:05;;;;;;;0.70;0.70;;;;;;;;;;5071704;28;20410;-80
2022/08/20 00:09:33;;;;;;;5.03;1.37;;;;;;;;;;5066482;28;20456;-80
2022/08/20 00:12:04;;;;;;;0.70;0.70;;;;;;;;;;5052309;28;20444;-80
2022/08/20 00:14:31;;;;;;;1.20;1.10;;;;;;;;;;5053273;28;20447;-79
2022/08/20 00:16:59;;;;;;;1.00;1.00;;;;;;;;;;5053121;28;20399;-80
2022/08/20 00:19:26;;;;;;;0.70;0.70;;;;;;;;;;5060659;28;20474;-80
2022/08/20 00:21:53;;;;;;;0.80;0.80;;;;;;;;;;5077792;28;20465;-80
2022/08/20 00:24:23;;;;;;;0.70;0.70;;;;;;;;;;5077080;28;20455;-79
2022/08/20 00:26:50;;;;;;;0.70;0.70;;;;;;;;;;5077780;28;20459;-81
2022/08/20 00:29:19;;;;;;;2.73;1.63;;;;;;;;;;5067992;28;20459;-80
2022/08/20 00:31:48;;;;;;;0.70;0.70;;;;;;;;;;5039829;28;20456;-81
2022/08/20 00:34:15;;;;;;;0.80;0.70;;;;;;;;;;5072120;28;20522;-81
2022/08/20 00:36:41;;;;;;;0.80;0.80;;;;;;;;;;5075251;28;21033;-84
2022/08/20 00:39:09;;;;;;;2.37;2.27;;;;;;;;;;5074688;28;20459;-84
2022/08/20 00:41:36;;;;;;;0.70;0.70;;;;;;;;;;5039633;28;20501;-82
2022/08/20 00:44:05;;;;;;;2.50;1.10;;;;;;;;;;5057496;28;20856;-82
2022/08/20 00:46:34;;;;;;;0.80;0.80;;;;;;;;;;5059107;28;20451;-83
2022/08/20 00:49:02;;;;;;;0.90;0.90;;;;;;;;;;5057766;28;20921;-82
2022/08/20 00:51:32;;;;;;;1.53;1.43;;;;;;;;;;5064527;28;20450;-82
2022/08/20 00:54:05;;;;;;;0.90;0.90;;;;;;;;;;5076906;28;20805;-83
2022/08/20 00:56:34;;;;;;;0.80;0.77;;;;;;;;;;5059356;28;20442;-82
2022/08/20 00:59:04;;;;;;;1.17;1.00;;;;;;;;;;5076600;28;20462;-82
2022/08/20 01:01:36;;;;;;;0.87;0.87;;;;;;;;;;5060617;28;20450;-82
2022/08/20 01:04:23;;;;;;;0.90;0.90;;;;;;;;;;5076725;28;20860;-82
2022/08/20 01:06:53;;;;;;;0.70;0.70;;;;;;;;;;5062687;28;20517;-84
2022/08/20 01:09:23;;;;;;;0.70;0.60;;;;;;;;;;5066630;28;20545;-82
2022/08/20 01:12:12;;;;;;;0.70;0.70;;;;;;;;;;5073734;28;20439;-82
2022/08/20 01:17:12;;;;;;;0.70;0.60;;;;;;;;;;5076345;28;20802;-83
2022/08/20 01:19:46;;;;;;;0.70;0.60;;;;;;;;;;5048668;28;20527;-84
2022/08/20 01:25:14;;;;;;;0.70;0.70;;;;;;;;;;5064423;28;20831;-82
2022/08/20 01:27:47;;;;;;;1.77;1.67;;;;;;;;;;5075406;28;20446;-81
2022/08/20 01:30:24;;;;;;;0.70;0.70;;;;;;;;;;5074710;28;20506;-82
2022/08/20 01:32:53;;;;;;;0.80;0.77;;;;;;;;;;5061597;28;20468;-83
2022/08/20 01:35:25;;;;;;;0.83;0.83;;;;;;;;;;5055887;28;20427;-82
2022/08/20 01:37:57;;;;;;;0.70;0.70;;;;;;;;;;5056519;28;21068;-84
2022/08/20 01:40:43;;;;;;;0.70;0.70;;;;;;;;;;5056114;28;20440;-84
2022/08/20 01:43:15;;;;;;;0.70;0.70;;;;;;;;;;5040005;28;20450;-83
2022/08/20 01:45:46;;;;;;;0.70;0.70;;;;;;;;;;5056090;28;20444;-82
2022/08/20 01:48:20;;;;;;;0.70;0.70;;;;;;;;;;5075555;28;21083;-83
2022/08/20 01:50:56;;;;;;;0.97;0.90;;;;;;;;;;5066390;28;21006;-82
2022/08/20 01:53:32;;;;;;;1.23;1.13;;;;;;;;;;5054983;28;20438;-83
2022/08/20 01:56:04;;;;;;;0.70;0.60;;;;;;;;;;5058419;28;20420;-83
2022/08/20 01:58:37;;;;;;;1.00;0.90;;;;;;;;;;5056250;28;20472;-84
2022/08/20 02:01:06;;;;;;;0.80;0.80;;;;;;;;;;5056525;28;20460;-82
2022/08/20 02:03:38;;;;;;;0.70;0.60;;;;;;;;;;5053877;28;20529;-83
2022/08/20 02:06:12;;;;;;;0.90;0.90;;;;;;;;;;5054394;28;20474;-82
2022/08/20 02:08:43;;;;;;;0.70;0.60;;;;;;;;;;5054687;28;20449;-83
2022/08/20 02:11:13;;;;;;;0.70;0.60;;;;;;;;;;5055629;28;20498;-83
2022/08/20 02:13:44;;;;;;;0.70;0.70;;;;;;;;;;5054560;28;20486;-83
2022/08/20 02:16:15;;;;;;;0.70;0.70;;;;;;;;;;5056845;28;20470;-84
2022/08/20 02:18:45;;;;;;;3.10;2.90;;;;;;;;;;5056353;28;20498;-83
2022/08/20 02:21:14;;;;;;;0.70;0.70;;;;;;;;;;5059796;28;20471;-84
2022/08/20 02:23:47;;;;;;;0.70;0.67;;;;;;;;;;5058821;28;20409;-83
2022/08/20 02:26:21;;;;;;;0.90;0.90;;;;;;;;;;5066090;28;20451;-84
2022/08/20 02:28:52;;;;;;;3.23;2.03;;;;;;;;;;5055078;28;20832;-83
2022/08/20 02:31:21;;;;;;;0.70;0.70;;;;;;;;;;5053925;28;20959;-84
2022/08/20 02:33:48;;;;;;;3.13;1.90;;;;;;;;;;5054827;28;20535;-83
2022/08/20 02:36:40;;;;;;;0.70;0.70;;;;;;;;;;5066457;28;20464;-83
2022/08/20 02:39:10;;;;;;;0.70;0.67;;;;;;;;;;5057003;28;20463;-81
2022/08/20 02:41:38;;;;;;;1.00;1.00;;;;;;;;;;5052787;28;20479;-83
2022/08/20 02:44:09;;;;;;;0.70;0.70;;;;;;;;;;5043012;28;20832;-83
2022/08/20 02:46:59;;;;;;;0.70;0.70;;;;;;;;;;5063737;28;20960;-83
2022/08/20 02:49:29;;;;;;;0.70;0.60;;;;;;;;;;5073622;28;20443;-83
2022/08/20 02:52:02;;;;;;;0.80;0.80;;;;;;;;;;5074153;28;20983;-83
2022/08/20 02:54:32;;;;;;;0.80;0.80;;;;;;;;;;5073884;28;20446;-82
2022/08/20 02:57:02;;;;;;;2.60;0.90;;;;;;;;;;5074374;28;20457;-82
2022/08/20 02:59:32;;;;;;;0.70;0.70;;;;;;;;;;5070494;28;20469;-83
2022/08/20 03:02:04;;;;;;;0.70;0.70;;;;;;;;;;5071344;28;20554;-82
2022/08/20 03:04:35;;;;;;;0.80;0.80;;;;;;;;;;5056185;28;20497;-82
2022/08/20 03:07:06;;;;;;;0.90;0.90;;;;;;;;;;5069008;28;20503;-84
2022/08/20 03:09:39;;;;;;;1.00;1.00;;;;;;;;;;5066866;28;20439;-80
2022/08/20 03:12:08;;;;;;;2.87;2.40;;;;;;;;;;5053234;28;20465;-83
2022/08/20 03:14:42;;;;;;;0.70;0.70;;;;;;;;;;5053463;28;20935;-81
2022/08/20 03:17:13;;;;;;;0.80;0.80;;;;;;;;;;5056989;28;20445;-84
2022/08/20 03:19:46;;;;;;;1.30;1.20;;;;;;;;;;5040501;28;20557;-82
2022/08/20 03:22:15;;;;;;;1.60;1.50;;;;;;;;;;5067384;28;20453;-84
2022/08/20 03:24:44;;;;;;;0.93;0.93;;;;;;;;;;5074066;28;20987;-83
2022/08/20 03:27:15;;;;;;;0.73;0.73;;;;;;;;;;5071836;28;20448;-83
2022/08/20 03:29:53;;;;;;;0.70;0.70;;;;;;;;;;5057250;28;20508;-83
2022/08/20 03:32:21;;;;;;;0.80;0.80;;;;;;;;;;5053392;28;20866;-82
2022/08/20 03:34:53;;;;;;;0.80;0.80;;;;;;;;;;5054985;28;20420;-83
2022/08/20 03:37:28;;;;;;;0.70;0.70;;;;;;;;;;5059078;28;20830;-82
2022/08/20 03:40:00;;;;;;;0.87;0.80;;;;;;;;;;5059177;28;20498;-83
2022/08/20 03:42:40;;;;;;;0.70;0.70;;;;;;;;;;5053788;28;20444;-82
2022/08/20 03:45:13;;;;;;;0.80;0.80;;;;;;;;;;5053486;28;20918;-83
2022/08/20 03:47:47;;;;;;;0.90;0.90;;;;;;;;;;5055113;28;20458;-80
2022/08/20 03:50:19;;;;;;;0.70;0.70;;;;;;;;;;5058889;28;20441;-82
2022/08/20 03:52:53;;;;;;;0.70;0.70;;;;;;;;;;5073319;28;20431;-81
2022/08/20 03:55:23;;;;;;;0.70;0.70;;;;;;;;;;5080906;28;20419;-82
2022/08/20 03:57:55;;;;;;;0.70;0.70;;;;;;;;;;5045250;28;20459;-81
2022/08/20 04:00:31;;;;;;;0.83;0.83;;;;;;;;;;5053828;28;20424;-82
2022/08/20 04:03:03;;;;;;;0.70;0.70;;;;;;;;;;5053969;28;20466;-84
2022/08/20 04:05:32;;;;;;;0.70;0.70;;;;;;;;;;5055293;28;20847;-82
2022/08/20 04:08:01;;;;;;;0.70;0.70;;;;;;;;;;5053572;28;20983;-82
2022/08/20 04:10:31;;;;;;;0.70;0.70;;;;;;;;;;5053689;28;20777;-82
2022/08/20 04:13:05;;;;;;;1.47;1.37;;;;;;;;;;5035503;28;20477;-81
2022/08/20 04:15:37;;;;;;;1.10;1.00;;;;;;;;;;5053884;28;20443;-83
2022/08/20 04:18:10;;;;;;;1.10;1.00;;;;;;;;;;5053020;28;20485;-82
2022/08/20 04:20:42;;;;;;;0.70;0.60;;;;;;;;;;5054888;28;20455;-82
2022/08/20 04:23:12;;;;;;;0.90;0.90;;;;;;;;;;5072671;28;20489;-81
2022/08/20 04:25:41;;;;;;;0.60;0.60;;;;;;;;;;5058937;28;20470;-84
2022/08/20 04:28:13;;;;;;;0.70;0.70;;;;;;;;;;5053207;28;20520;-80
2022/08/20 04:30:52;;;;;;;0.70;0.60;;;;;;;;;;5058066;28;20435;-82
2022/08/20 04:33:23;;;;;;;0.77;0.77;;;;;;;;;;5052524;28;20446;-81
2022/08/20 04:36:01;;;;;;;0.70;0.67;;;;;;;;;;5053415;28;20976;-82
2022/08/20 04:38:32;;;;;;;0.70;0.60;;;;;;;;;;5053249;28;20483;-81
2022/08/20 04:41:17;;;;;;;0.87;0.87;;;;;;;;;;5053225;28;20443;-82
2022/08/20 04:43:51;;;;;;;0.70;0.70;;;;;;;;;;5054725;28;20514;-82
2022/08/20 04:46:24;;;;;;;3.73;3.07;;;;;;;;;;5054640;28;20554;-81
2022/08/20 04:48:54;;;;;;;0.70;0.60;;;;;;;;;;5053630;28;20760;-80
2022/08/20 04:51:22;;;;;;;0.70;0.70;;;;;;;;;;5056016;28;20522;-78
2022/08/20 04:53:57;;;;;;;0.70;0.70;;;;;;;;;;5070403;28;20592;-78
2022/08/20 04:56:27;;;;;;;0.70;0.60;;;;;;;;;;5053897;28;20473;-80
2022/08/20 04:58:59;;;;;;;1.00;1.00;;;;;;;;;;5062353;28;20466;-79
2022/08/20 05:01:29;;;;;;;0.60;0.60;;;;;;;;;;5063355;28;20486;-81
2022/08/20 05:03:56;;;;;;;0.70;0.63;;;;;;;;;;5057153;28;20512;-82
2022/08/20 05:06:27;;;;;;;0.80;0.80;;;;;;;;;;5040237;28;20518;-81
2022/08/20 05:08:57;;;;;;;0.83;0.83;;;;;;;;;;5040111;28;20474;-79
2022/08/20 05:11:28;;;;;;;1.00;0.90;;;;;;;;;;5059366;28;20430;-79
2022/08/20 05:14:01;;;;;;;1.10;0.80;;;;;;;;;;5059893;28;20868;-79
2022/08/20 05:16:36;;;;;;;1.33;1.23;;;;;;;;;;5073086;28;20491;-80
2022/08/20 05:19:05;;;;;;;1.73;1.63;;;;;;;;;;5072592;28;20526;-81
2022/08/20 05:21:33;;;;;;;0.90;0.90;;;;;;;;;;5061552;28;20448;-80
2022/08/20 05:24:01;;;;;;;2.13;1.97;;;;;;;;;;5076308;28;20404;-82
2022/08/20 05:26:32;;;;;;;1.03;1.03;;;;;;;;;;5073453;28;20450;-81
2022/08/20 05:29:05;;;;;;;0.70;0.70;;;;;;;;;;5073162;28;20441;-79
2022/08/20 05:31:36;;;;;;;0.70;0.70;;;;;;;;;;5072093;28;20447;-80
2022/08/20 05:34:08;;;;;;;1.77;1.67;;;;;;;;;;5077817;28;20413;-79
2022/08/20 05:36:42;;;;;;;2.33;2.13;;;;;;;;;;5049226;28;20879;-81
2022/08/20 05:39:12;;;;;;;2.03;1.93;;;;;;;;;;5040316;28;20456;-82
2022/08/20 05:41:41;;;;;;;0.70;0.70;;;;;;;;;;5055984;28;20520;-80
2022/08/20 05:44:12;;;;;;;0.80;0.80;;;;;;;;;;5054858;28;20856;-80
2022/08/20 05:46:44;;;;;;;1.67;0.87;;;;;;;;;;5059431;28;20442;-80
2022/08/20 05:49:16;;;;;;;0.90;0.90;;;;;;;;;;5072018;28;20913;-80
2022/08/20 05:51:43;;;;;;;2.27;2.17;;;;;;;;;;5065655;28;20980;-80
2022/08/20 05:54:10;;;;;;;0.70;0.70;;;;;;;;;;5078346;28;20432;-79
2022/08/20 05:56:37;;;;;;;1.00;0.90;;;;;;;;;;5076181;28;20439;-79
2022/08/20 05:59:04;;;;;;;27.53;1.83;;;;;;;;;;5076021;28;20461;-80
2022/08/20 06:01:31;;;;;;;0.80;0.80;;;;;;;;;;5066938;28;20469;-78
2022/08/20 06:06:47;;;;;;;0.80;0.80;;;;;;;;;;5077707;28;20466;-82
2022/08/20 06:09:15;;;;;;;0.73;0.70;;;;;;;;;;5058551;28;20800;-82
2022/08/20 06:11:53;;;;;;;2.70;2.50;;;;;;;;;;5067655;28;20470;-81
2022/08/20 06:14:25;;;;;;;1.00;1.00;;;;;;;;;;5075136;28;20474;-82
2022/08/20 06:16:52;;;;;;;1.37;1.30;;;;;;;;;;5078908;28;20885;-80
2022/08/20 06:19:26;;;;;;;1.20;1.07;;;;;;;;;;5058530;28;20487;-81
2022/08/20 06:21:58;;;;;;;1.07;1.00;;;;;;;;;;5066572;28;20471;-82
2022/08/20 06:24:26;;;;;;;1.50;1.40;;;;;;;;;;5077866;28;20446;-82
2022/08/20 06:26:54;;;;;;;1.53;1.47;;;;;;;;;;5061614;28;20533;-83
2022/08/20 06:29:21;;;;;;;1.83;1.73;;;;;;;;;;5075741;28;20445;-80
2022/08/20 06:31:48;;;;;;;2.60;1.50;;;;;;;;;;5060752;28;20497;-81
2022/08/20 06:34:15;;;;;;;2.90;0.80;;;;;;;;;;5056082;28;20480;-80
2022/08/20 06:36:45;;;;;;;1.20;1.10;;;;;;;;;;5057851;28;20743;-81
2022/08/20 06:39:12;;;;;;;0.60;0.60;;;;;;;;;;5068500;28;20534;-81
2022/08/20 06:41:39;;;;;;;1.73;1.63;;;;;;;;;;5056579;28;20461;-83
2022/08/20 06:44:08;;;;;;;2.30;2.10;;;;;;;;;;5074694;28;20924;-80
2022/08/20 06:46:36;;;;;;;1.57;1.50;;;;;;;;;;5057816;28;20532;-83
2022/08/20 06:49:02;;;;;;;0.60;0.60;;;;;;;;;;5056964;28;20538;-81
2022/08/20 06:51:29;;;;;;;1.53;1.43;;;;;;;;;;5061653;28;20475;-78
2022/08/20 06:53:59;;;;;;;0.70;0.60;;;;;;;;;;5067856;28;20579;-81
2022/08/20 06:56:25;;;;;;;3.17;1.83;;;;;;;;;;5050079;28;20444;-79
2022/08/20 06:58:53;;;;;;;0.80;0.80;;;;;;;;;;5073908;28;20460;-81
2022/08/20 07:01:20;;;;;;;1.00;0.90;;;;;;;;;;5064760;28;20478;-79
2022/08/20 07:03:48;;;;;;;3.10;1.23;;;;;;;;;;5056732;28;20428;-81
2022/08/20 07:06:22;;;;;;;0.90;0.90;;;;;;;;;;5064496;28;21032;-81
2022/08/20 07:08:49;;;;;;;1.90;1.80;;;;;;;;;;5045914;28;20459;-80
2022/08/20 07:11:17;;;;;;;1.83;1.23;;;;;;;;;;5073185;28;20484;-80
2022/08/20 07:13:44;;;;;;;1.10;1.00;;;;;;;;;;5071522;28;20440;-79
2022/08/20 07:16:11;;;;;;;0.90;0.90;;;;;;;;;;5060669;28;20439;-79
2022/08/20 07:18:38;;;;;;;0.70;0.60;;;;;;;;;;5066726;28;20422;-77
2022/08/20 07:21:05;;;;;;;0.70;0.70;;;;;;;;;;5066814;28;20497;-78
2022/08/20 07:23:32;;;;;;;1.00;1.00;;;;;;;;;;5056825;28;20464;-78
2022/08/20 07:25:59;;;;;;;0.70;0.60;;;;;;;;;;5055363;28;20845;-79
2022/08/20 07:28:45;;;;;;;1.00;0.97;;;;;;;;;;5054328;28;20885;-80
2022/08/20 07:34:01;;;;;;;2.50;2.40;;;;;;;;;;5052071;28;20428;-77
2022/08/20 07:36:28;;;;;;;1.00;1.00;;;;;;;;;;5037072;28;20467;-79
2022/08/20 07:38:56;;;;;;;1.57;1.00;;;;;;;;;;5052664;28;20514;-80
2022/08/20 07:41:22;;;;;;;1.73;1.53;;;;;;;;;;5053159;28;20463;-79
2022/08/20 07:43:50;;;;;;;1.13;1.03;;;;;;;;;;5053023;28;20448;-79
2022/08/20 07:46:18;;;;;;;0.80;0.67;;;;;;;;;;5035541;28;20531;-78
2022/08/20 07:48:48;;;;;;;1.10;0.87;;;;;;;;;;5054252;28;20507;-79
2022/08/20 07:51:17;;;;;;;1.03;0.93;;;;;;;;;;5057904;28;20467;-79
2022/08/20 07:53:45;;;;;;;0.80;0.80;;;;;;;;;;5048023;28;20447;-79
2022/08/20 07:56:13;;;;;;;3.13;2.93;;;;;;;;;;5054070;28;20439;-79
2022/08/20 07:58:42;;;;;;;1.17;1.07;;;;;;;;;;5035626;28;20439;-78
2022/08/20 08:01:10;;;;;;;1.23;1.13;;;;;;;;;;5052789;28;20935;-79
2022/08/20 08:03:37;;;;;;;2.20;2.10;;;;;;;;;;5054080;28;20413;-78
2022/08/20 08:06:17;;;;;;;1.40;1.30;;;;;;;;;;5055733;28;20481;-79
2022/08/20 08:08:57;;;;;;;0.70;0.70;;;;;;;;;;5052892;28;20428;-79
2022/08/20 08:11:23;;;;;;;0.80;0.70;;;;;;;;;;5054046;28;20423;-79
2022/08/20 08:13:51;;;;;;;1.13;1.03;;;;;;;;;;5052741;28;20424;-78
2022/08/20 08:16:19;;;;;;;1.87;1.77;;;;;;;;;;5051932;28;20921;-79
2022/08/20 08:18:48;;;;;;;1.67;1.57;;;;;;;;;;5052236;28;20417;-78
2022/08/20 08:21:16;;;;;;;0.80;0.80;;;;;;;;;;5057826;28;20498;-79
2022/08/20 08:23:43;;;;;;;1.63;1.17;;;;;;;;;;5073729;28;20461;-79
2022/08/20 08:26:10;;;;;;;0.70;0.63;;;;;;;;;;5054107;28;20418;-79
2022/08/20 08:28:44;;;;;;;1.27;1.17;;;;;;;;;;5052057;28;20428;-78
2022/08/20 08:31:12;;;;;;;0.80;0.77;;;;;;;;;;5052612;28;20429;-78
2022/08/20 08:33:40;;;;;;;0.97;0.97;;;;;;;;;;5051650;28;20828;-77
2022/08/20 08:36:09;;;;;;;0.93;0.90;;;;;;;;;;5039005;28;20451;-78
2022/08/20 08:38:37;;;;;;;1.20;1.10;;;;;;;;;;5055107;28;20448;-76
2022/08/20 08:41:08;;;;;;;0.70;0.70;;;;;;;;;;5075809;28;20507;-78
2022/08/20 08:43:35;;;;;;;0.70;0.70;;;;;;;;;;5073364;28;20423;-78
2022/08/20 08:46:05;;;;;;;1.40;1.30;;;;;;;;;;5074745;28;20935;-78
2022/08/20 08:48:33;;;;;;;1.87;1.10;;;;;;;;;;5058443;28;20440;-77
2022/08/20 08:51:03;;;;;;;0.70;0.60;;;;;;;;;;5053946;28;20517;-76
2022/08/20 08:53:32;;;;;;;0.70;0.70;;;;;;;;;;5073352;28;20410;-77
2022/08/20 08:55:58;;;;;;;1.33;1.23;;;;;;;;;;5056003;28;20512;-77
2022/08/20 08:58:26;;;;;;;1.00;0.90;;;;;;;;;;5071874;28;20439;-78
2022/08/20 09:00:53;;;;;;;1.00;0.90;;;;;;;;;;5073338;28;20422;-78
2022/08/20 09:03:24;;;;;;;0.77;0.70;;;;;;;;;;5068398;28;21084;-78
2022/08/20 09:05:53;;;;;;;0.93;0.93;;;;;;;;;;5067298;28;20801;-78
2022/08/20 09:08:23;;;;;;;1.50;1.40;;;;;;;;;;5077165;28;20887;-79
2022/08/20 09:10:51;;;;;;;0.77;0.77;;;;;;;;;;5075692;28;20402;-77
2022/08/20 09:13:18;;;;;;;1.93;1.30;;;;;;;;;;5075231;28;20435;-79
2022/08/20 09:15:45;;;;;;;1.17;1.07;;;;;;;;;;5042241;28;20490;-79
2022/08/20 09:18:11;;;;;;;0.97;0.87;;;;;;;;;;5071381;28;20431;-79
2022/08/20 09:20:38;;;;;;;1.20;1.07;;;;;;;;;;5064184;28;20437;-79
2022/08/20 09:23:05;;;;;;;0.70;0.70;;;;;;;;;;5074664;28;20405;-78
2022/08/20 09:25:33;;;;;;;0.77;0.70;;;;;;;;;;5074683;28;20515;-78
2022/08/20 09:28:00;;;;;;;1.63;1.10;;;;;;;;;;5072170;28;20440;-77
2022/08/20 09:30:29;;;;;;;1.10;0.93;;;;;;;;;;5055296;28;20459;-78
2022/08/20 09:32:57;;;;;;;1.00;0.90;;;;;;;;;;5056621;28;20463;-79
2022/08/20 09:35:24;;;;;;;1.30;1.07;;;;;;;;;;5038886;28;20485;-77
2022/08/20 09:37:51;;;;;;;1.10;1.00;;;;;;;;;;5054249;28;20443;-78
2022/08/20 09:40:19;;;;;;;0.90;0.90;;;;;;;;;;5060691;28;20474;-79
2022/08/20 09:42:50;;;;;;;2.23;1.17;;;;;;;;;;5054937;28;20443;-78
2022/08/20 09:45:18;;;;;;;0.70;0.70;;;;;;;;;;5055163;28;20442;-79
2022/08/20 09:47:45;;;;;;;1.13;1.03;;;;;;;;;;5046060;28;20944;-76
2022/08/20 09:50:22;;;;;;;1.07;0.97;;;;;;;;;;5057574;28;20474;-78
2022/08/20 09:52:51;;;;;;;0.80;0.70;;;;;;;;;;5060643;28;20752;-76
2022/08/20 09:55:20;;;;;;;0.80;0.70;;;;;;;;;;5055518;28;20445;-79
2022/08/20 09:57:49;;;;;;;1.17;1.07;;;;;;;;;;5055650;28;20845;-79
2022/08/20 10:00:17;;;;;;;2.80;1.63;;;;;;;;;;5054318;28;20464;-79
2022/08/20 10:02:46;;;;;;;0.70;0.60;;;;;;;;;;5038486;28;20411;-78
2022/08/20 10:05:13;;;;;;;1.27;1.17;;;;;;;;;;5053949;28;20465;-79
2022/08/20 10:07:40;;;;;;;1.67;1.53;;;;;;;;;;5053848;28;20482;-79
2022/08/20 10:10:08;;;;;;;0.80;0.80;;;;;;;;;;5056305;28;20456;-79
2022/08/20 10:12:35;;;;;;;0.70;0.63;;;;;;;;;;5066043;28;20513;-76
2022/08/20 10:15:04;;;;;;;0.77;0.70;;;;;;;;;;5057955;28;20465;-79
2022/08/20 10:17:31;;;;;;;0.80;0.80;;;;;;;;;;5076055;28;20435;-79
2022/08/20 10:19:58;;;;;;;0.80;0.70;;;;;;;;;;5074503;28;20421;-79
2022/08/20 10:22:26;;;;;;;0.80;0.80;;;;;;;;;;5070708;28;20591;-77
2022/08/20 10:24:52;;;;;;;0.80;0.77;;;;;;;;;;5068521;28;20418;-79
2022/08/20 10:27:20;;;;;;;1.30;1.20;;;;;;;;;;5073889;28;20394;-77
2022/08/20 10:29:46;;;;;;;1.30;1.20;;;;;;;;;;5058604;28;20456;-78
2022/08/20 10:32:16;;;;;;;0.70;0.60;;;;;;;;;;5063531;28;20429;-79
2022/08/20 10:34:44;;;;;;;0.90;0.70;;;;;;;;;;5074728;28;20508;-79
2022/08/20 10:37:13;;;;;;;0.80;0.70;;;;;;;;;;5074003;28;20422;-79
2022/08/20 10:39:40;;;;;;;0.77;0.70;;;;;;;;;;5057075;28;20439;-78
2022/08/20 10:42:07;;;;;;;1.93;1.00;;;;;;;;;;5056994;28;20450;-78
2022/08/20 10:44:33;;;;;;;0.80;0.70;;;;;;;;;;5061745;28;20478;-77
2022/08/20 10:47:11;;;;;;;0.80;0.80;;;;;;;;;;5062382;28;20439;-78
2022/08/20 10:49:40;;;;;;;2.40;1.00;;;;;;;;;;5072946;28;20574;-79
2022/08/20 10:52:07;;;;;;;2.43;2.30;;;;;;;;;;5074333;28;20534;-78
2022/08/20 10:54:34;;;;;;;0.73;0.70;;;;;;;;;;5073648;28;20785;-79
2022/08/20 10:57:02;;;;;;;0.80;0.70;;;;;;;;;;5074862;28;20473;-79
2022/08/20 10:59:29;;;;;;;0.80;0.70;;;;;;;;;;5062613;28;20595;-77
2022/08/20 11:01:57;;;;;;;1.07;0.90;;;;;;;;;;5045525;28;20479;-79
2022/08/20 11:04:23;;;;;;;1.00;0.87;;;;;;;;;;5054482;28;20474;-77
2022/08/20 11:06:52;;;;;;;0.87;0.70;;;;;;;;;;5054180;28;20444;-78
2022/08/20 11:09:18;;;;;;;0.80;0.80;;;;;;;;;;5054244;28;20474;-77
2022/08/20 11:11:45;;;;;;;0.70;0.60;;;;;;;;;;5053516;28;20440;-79
2022/08/20 11:14:12;;;;;;;0.70;0.50;;;;;;;;;;5070827;28;20465;-78
2022/08/20 11:16:39;;;;;;;0.80;0.63;;;;;;;;;;5071272;28;20438;-78
2022/08/20 11:19:06;;;;;;;1.43;1.33;;;;;;;;;;5053720;28;20956;-78
2022/08/20 11:21:32;;;;;;;0.83;0.83;;;;;;;;;;5058666;28;20474;-77
2022/08/20 11:24:01;;;;;;;0.70;0.50;;;;;;;;;;5055078;28;20455;-75
2022/08/20 11:26:28;;;;;;;0.77;0.67;;;;;;;;;;5063360;28;20523;-79
2022/08/20 11:28:56;;;;;;;1.30;1.20;;;;;;;;;;5073879;28;20916;-77
2022/08/20 11:31:23;;;;;;;0.80;0.70;;;;;;;;;;5074164;28;20880;-79
2022/08/20 11:33:51;;;;;;;0.80;0.80;;;;;;;;;;5063966;28;20546;-77
2022/08/20 11:36:18;;;;;;;1.30;1.20;;;;;;;;;;5053630;28;20451;-76
2022/08/20 11:38:48;;;;;;;1.10;1.00;;;;;;;;;;5053178;28;20432;-77
2022/08/20 11:41:16;;;;;;;0.80;0.73;;;;;;;;;;5054452;28;20470;-76
2022/08/20 11:43:43;;;;;;;0.70;0.60;;;;;;;;;;5072931;28;20506;-78
2022/08/20 11:46:31;;;;;;;1.10;1.00;;;;;;;;;;5073816;28;20454;-78
2022/08/20 11:48:58;;;;;;;0.70;0.60;;;;;;;;;;5067461;28;20447;-77
2022/08/20 11:51:25;;;;;;;1.13;1.03;;;;;;;;;;5058291;28;20490;-78
2022/08/20 11:53:52;;;;;;;0.80;0.70;;;;;;;;;;5042447;28;20494;-78
2022/08/20 11:56:23;;;;;;;0.90;0.63;;;;;;;;;;5055330;28;20854;-77
2022/08/20 11:58:52;;;;;;;3.60;1.57;;;;;;;;;;5053920;28;20442;-77
2022/08/20 12:01:19;;;;;;;0.97;0.87;;;;;;;;;;5069051;28;20994;-77
2022/08/20 12:03:46;;;;;;;1.20;1.10;;;;;;;;;;5072926;28;20924;-76
2022/08/20 12:06:12;;;;;;;1.20;1.00;;;;;;;;;;5072180;28;20526;-75
2022/08/20 12:08:39;;;;;;;1.40;0.83;;;;;;;;;;5071011;28;20534;-75
2022/08/20 12:11:07;;;;;;;0.70;0.70;;;;;;;;;;5073478;28;20423;-76
2022/08/20 12:13:36;;;;;;;0.73;0.60;;;;;;;;;;5071494;28;20423;-77
2022/08/20 12:16:15;;;;;;;0.80;0.70;;;;;;;;;;5074046;28;20569;-77
2022/08/20 12:18:42;;;;;;;0.80;0.70;;;;;;;;;;5073655;28;20423;-76
2022/08/20 12:21:08;;;;;;;0.70;0.63;;;;;;;;;;5071523;28;20470;-78
2022/08/20 12:23:36;;;;;;;2.03;1.83;;;;;;;;;;5071563;28;20465;-77
2022/08/20 12:26:03;;;;;;;0.90;0.90;;;;;;;;;;5037582;28;20486;-77
2022/08/20 12:28:29;;;;;;;1.23;1.13;;;;;;;;;;5054042;28;20894;-75
2022/08/20 12:30:57;;;;;;;1.63;1.13;;;;;;;;;;5070486;28;20467;-77
2022/08/20 12:33:24;;;;;;;0.70;0.70;;;;;;;;;;5075368;28;20463;-76
2022/08/20 12:35:51;;;;;;;1.10;0.90;;;;;;;;;;5073124;28;20494;-76
2022/08/20 12:38:18;;;;;;;0.80;0.80;;;;;;;;;;5049679;28;20480;-75
2022/08/20 12:40:46;;;;;;;3.30;1.20;;;;;;;;;;5062880;28;20435;-76
2022/08/20 12:43:13;;;;;;;2.20;2.00;;;;;;;;;;5058149;28;20451;-74
2022/08/20 12:45:40;;;;;;;0.90;0.70;;;;;;;;;;5054908;28;20420;-76
2022/08/20 12:48:10;;;;;;;3.07;2.33;;;;;;;;;;5054837;28;20485;-75
2022/08/20 12:50:38;;;;;;;0.80;0.70;;;;;;;;;;5037003;28;20443;-76
2022/08/20 12:53:05;;;;;;;1.20;1.10;;;;;;;;;;5059315;28;20969;-75
2022/08/20 12:55:32;;;;;;;0.73;0.63;;;;;;;;;;5065031;28;20435;-75
2022/08/20 12:58:01;;;;;;;0.97;0.90;;;;;;;;;;5041970;28;20974;-75
2022/08/20 13:00:31;;;;;;;1.00;0.87;;;;;;;;;;5052953;28;20509;-76
2022/08/20 13:02:59;;;;;;;0.80;0.80;;;;;;;;;;5040345;28;20826;-76
2022/08/20 13:05:28;;;;;;;0.80;0.70;;;;;;;;;;5058633;28;20444;-77
2022/08/20 13:07:55;;;;;;;3.07;2.87;;;;;;;;;;5061401;28;20443;-76
2022/08/20 13:10:23;;;;;;;1.17;1.07;;;;;;;;;;5072162;28;20985;-74
2022/08/20 13:12:50;;;;;;;0.90;0.73;;;;;;;;;;5072477;28;20467;-76
2022/08/20 13:15:17;;;;;;;1.30;1.20;;;;;;;;;;5071599;28;20477;-74
2022/08/20 13:17:44;;;;;;;0.80;0.70;;;;;;;;;;5058782;28;20566;-75
2022/08/20 13:20:12;;;;;;;0.70;0.60;;;;;;;;;;5051694;28;20456;-76
2022/08/20 13:22:41;;;;;;;0.70;0.50;;;;;;;;;;5062077;28;20460;-75
2022/08/20 13:25:08;;;;;;;1.30;1.20;;;;;;;;;;5064947;28;20435;-76
2022/08/20 13:27:38;;;;;;;0.70;0.50;;;;;;;;;;5064515;28;20521;-75
2022/08/20 13:30:05;;;;;;;0.90;0.90;;;;;;;;;;5065806;28;20486;-76
2022/08/20 13:32:33;;;;;;;0.70;0.50;;;;;;;;;;5053674;28;20482;-76
2022/08/20 13:34:59;;;;;;;1.33;0.90;;;;;;;;;;5063757;28;20960;-76
2022/08/20 13:37:28;;;;;;;2.40;1.43;;;;;;;;;;5056815;28;20578;-77
2022/08/20 13:39:56;;;;;;;0.80;0.73;;;;;;;;;;5046916;28;20475;-80
2022/08/20 13:42:24;;;;;;;1.10;1.00;;;;;;;;;;5076260;28;21037;-78
2022/08/20 13:44:51;;;;;;;0.90;0.70;;;;;;;;;;5077186;28;20415;-81
2022/08/20 13:47:19;;;;;;;0.80;0.50;;;;;;;;;;5074752;28;20449;-79
2022/08/20 13:49:46;;;;;;;0.80;0.60;;;;;;;;;;5064312;28;20444;-79
2022/08/20 13:52:13;;;;;;;0.90;0.70;;;;;;;;;;5069100;28;20542;-77
2022/08/20 13:54:43;;;;;;;1.00;0.50;;;;;;;;;;5072325;28;20442;-77
2022/08/20 13:57:13;;;;;;;0.80;0.70;;;;;;;;;;5063376;28;20990;-80
2022/08/20 13:59:40;;;;;;;2.50;0.80;;;;;;;;;;5070333;28;20826;-81
2022/08/20 14:02:08;;;;;;;0.80;0.60;;;;;;;;;;5059972;28;20579;-77
2022/08/20 14:04:36;;;;;;;2.53;2.33;;;;;;;;;;5064194;28;20538;-78
2022/08/20 14:07:09;;;;;;;0.80;0.60;;;;;;;;;;5063618;28;20475;-81
2022/08/20 14:09:36;;;;;;;0.70;0.60;;;;;;;;;;5070075;28;20452;-78
2022/08/20 14:12:04;;;;;;;0.70;0.50;;;;;;;;;;5064918;28;20424;-79
2022/08/20 14:14:32;;;;;;;1.10;0.90;;;;;;;;;;5055450;28;20491;-75
2022/08/20 14:16:59;;;;;;;0.70;0.50;;;;;;;;;;5067302;28;20550;-76
2022/08/20 14:19:27;;;;;;;1.00;0.60;;;;;;;;;;5070376;28;20452;-75
2022/08/20 14:21:53;;;;;;;0.70;0.60;;;;;;;;;;5068037;28;20518;-76
2022/08/20 14:24:20;;;;;;;0.70;0.50;;;;;;;;;;5061768;28;20964;-74
2022/08/20 14:26:47;;;;;;;0.90;0.80;;;;;;;;;;5055183;28;20520;-76
2022/08/20 14:29:18;;;;;;;0.80;0.73;;;;;;;;;;5062605;28;20436;-76
2022/08/20 14:31:46;;;;;;;0.97;0.87;;;;;;;;;;5053376;28;20459;-77
2022/08/20 14:34:13;;;;;;;5.23;1.07;;;;;;;;;;5059174;28;20436;-78
2022/08/20 14:36:40;;;;;;;1.20;0.97;;;;;;;;;;5063344;28;20481;-80
2022/08/20 14:39:07;;;;;;;0.70;0.60;;;;;;;;;;5055913;28;20435;-80
2022/08/20 14:41:34;;;;;;;1.73;1.63;;;;;;;;;;5068996;28;20493;-79
2022/08/20 14:44:00;;;;;;;0.80;0.63;;;;;;;;;;5073673;28;20520;-76
2022/08/20 14:46:33;;;;;;;0.70;0.50;;;;;;;;;;5058058;28;21034;-78
2022/08/20 14:49:01;;;;;;;0.70;0.60;;;;;;;;;;5061746;28;20531;-78
2022/08/20 14:51:30;;;;;;;0.80;0.80;;;;;;;;;;5055159;28;20481;-83
2022/08/20 14:53:56;;;;;;;1.13;1.03;;;;;;;;;;5061982;28;20956;-80
2022/08/20 14:56:23;;;;;;;0.80;0.60;;;;;;;;;;5068957;28;20435;-81
2022/08/20 14:58:50;;;;;;;0.80;0.60;;;;;;;;;;5074136;28;20522;-78
2022/08/20 15:01:17;;;;;;;0.80;0.60;;;;;;;;;;5055722;28;20444;-80
2022/08/20 15:03:44;;;;;;;0.80;0.60;;;;;;;;;;5061603;28;20869;-77
2022/08/20 15:06:13;;;;;;;0.77;0.50;;;;;;;;;;5073232;28;20886;-81
2022/08/20 15:08:48;;;;;;;0.80;0.50;;;;;;;;;;5070972;28;20500;-76